sensor_id;sensor_type;location;lat;lon;timestamp;P1;durP1;ratioP1;P2;durP2;ratioP2
11111;SDS011;5609;49.466;8.468;2023-05-29T00:02:07;5.13;;;3.67;;
11111;SDS011;5609;49.466;8.468;2023-05-29T00:04:34;4.60;;;3.57;;
11111;SDS011;5609;49.466;8.468;2023-05-29T00:07:02;4.73;;;3.47;;
11111;SDS011;5609;49.466;8.468;2023-05-29T00:09:29;5.63;;;3.20;;
11111;SDS011;5609;49.466;8.468;2023-05-29T00:11:56;6.57;;;4.10;;
11111;SDS011;5609;49.466;8.468;2023-05-29T00:14:23;4.77;;;3.63;;
11111;SDS011;5609;49.466;8.468;2023-05-29T00:16:51;3.97;;;3.30;;
11111;SDS011;5609;49.466;8.468;2023-05-29T00:19:19;4.80;;;3.20;;
11111;SDS011;5609;49.466;8.468;2023-05-29T00:21:46;7.33;;;3.70;;
11111;SDS011;5609;49.466;8.468;2023-05-29T00:24:13;5.90;;;3.40;;
11111;SDS011;5609;49.466;8.468;2023-05-29T00:26:41;6.67;;;3.60;;
11111;SDS011;5609;49.466;8.468;2023-05-29T00:29:08;5.60;;;3.47;;
11111;SDS011;5609;49.466;8.468;2023-05-29T00:31:35;5.77;;;3.63;;
11111;SDS011;5609;49.466;8.468;2023-05-29T00:34:02;7.23;;;3.90;;
11111;SDS011;5609;49.466;8.468;2023-05-29T00:36:31;4.83;;;3.63;;
11111;SDS011;5609;49.466;8.468;2023-05-29T00:38:58;5.47;;;3.80;;
11111;SDS011;5609;49.466;8.468;2023-05-29T00:41:25;5.17;;;3.77;;
11111;SDS011;5609;49.466;8.468;2023-05-29T00:43:52;5.63;;;3.70;;
11111;SDS011;5609;49.466;8.468;2023-05-29T00:46:19;5.43;;;3.73;;
11111;SDS011;5609;49.466;8.468;2023-05-29T00:48:46;4.87;;;3.60;;
11111;SDS011;5609;49.466;8.468;2023-05-29T00:51:14;5.83;;;4.10;;
11111;SDS011;5609;49.466;8.468;2023-05-29T00:53:42;4.70;;;3.60;;
11111;SDS011;5609;49.466;8.468;2023-05-29T00:56:10;4.67;;;3.80;;
11111;SDS011;5609;49.466;8.468;2023-05-29T00:58:37;5.77;;;3.63;;
11111;SDS011;5609;49.466;8.468;2023-05-29T01:01:04;5.37;;;4.10;;
11111;SDS011;5609;49.466;8.468;2023-05-29T01:03:31;5.43;;;3.80;;
11111;SDS011;5609;49.466;8.468;2023-05-29T01:06:00;4.73;;;3.70;;
11111;SDS011;5609;49.466;8.468;2023-05-29T01:08:28;4.57;;;3.37;;
11111;SDS011;5609;49.466;8.468;2023-05-29T01:11:00;4.40;;;3.60;;
11111;SDS011;5609;49.466;8.468;2023-05-29T01:13:30;6.33;;;3.50;;
11111;SDS011;5609;49.466;8.468;2023-05-29T01:16:00;5.97;;;3.80;;
11111;SDS011;5609;49.466;8.468;2023-05-29T01:18:31;4.77;;;3.53;;
11111;SDS011;5609;49.466;8.468;2023-05-29T01:21:03;5.37;;;3.67;;
11111;SDS011;5609;49.466;8.468;2023-05-29T01:23:40;6.20;;;3.77;;
11111;SDS011;5609;49.466;8.468;2023-05-29T01:26:20;5.73;;;3.80;;
11111;SDS011;5609;49.466;8.468;2023-05-29T01:28:52;4.57;;;3.20;;
11111;SDS011;5609;49.466;8.468;2023-05-29T01:31:21;7.33;;;3.63;;
11111;SDS011;5609;49.466;8.468;2023-05-29T01:33:52;5.50;;;3.20;;
11111;SDS011;5609;49.466;8.468;2023-05-29T01:36:19;5.23;;;3.60;;
11111;SDS011;5609;49.466;8.468;2023-05-29T01:38:46;5.70;;;3.90;;
11111;SDS011;5609;49.466;8.468;2023-05-29T01:41:14;6.10;;;3.90;;
11111;SDS011;5609;49.466;8.468;2023-05-29T01:43:41;5.67;;;3.80;;
11111;SDS011;5609;49.466;8.468;2023-05-29T01:46:10;6.63;;;3.60;;
11111;SDS011;5609;49.466;8.468;2023-05-29T01:48:38;5.20;;;3.73;;
11111;SDS011;5609;49.466;8.468;2023-05-29T01:51:05;5.00;;;3.70;;
11111;SDS011;5609;49.466;8.468;2023-05-29T01:53:32;5.43;;;3.50;;
11111;SDS011;5609;49.466;8.468;2023-05-29T01:55:59;5.27;;;3.80;;
11111;SDS011;5609;49.466;8.468;2023-05-29T01:58:26;5.33;;;3.53;;
11111;SDS011;5609;49.466;8.468;2023-05-29T02:00:54;5.70;;;3.83;;
11111;SDS011;5609;49.466;8.468;2023-05-29T02:03:23;6.13;;;3.80;;
11111;SDS011;5609;49.466;8.468;2023-05-29T02:05:53;5.70;;;4.07;;
11111;SDS011;5609;49.466;8.468;2023-05-29T02:08:21;6.53;;;3.93;;
11111;SDS011;5609;49.466;8.468;2023-05-29T02:10:48;6.07;;;3.77;;
11111;SDS011;5609;49.466;8.468;2023-05-29T02:13:15;5.67;;;3.70;;
11111;SDS011;5609;49.466;8.468;2023-05-29T02:15:43;5.90;;;4.40;;
11111;SDS011;5609;49.466;8.468;2023-05-29T02:18:10;6.13;;;4.10;;
11111;SDS011;5609;49.466;8.468;2023-05-29T02:20:39;6.47;;;4.07;;
11111;SDS011;5609;49.466;8.468;2023-05-29T02:23:07;9.00;;;4.47;;
11111;SDS011;5609;49.466;8.468;2023-05-29T02:25:34;7.00;;;4.20;;
11111;SDS011;5609;49.466;8.468;2023-05-29T02:28:02;5.97;;;4.13;;
11111;SDS011;5609;49.466;8.468;2023-05-29T02:30:29;5.07;;;4.00;;
11111;SDS011;5609;49.466;8.468;2023-05-29T02:32:56;5.83;;;4.10;;
11111;SDS011;5609;49.466;8.468;2023-05-29T02:35:24;6.87;;;4.40;;
11111;SDS011;5609;49.466;8.468;2023-05-29T02:37:52;4.70;;;4.20;;
11111;SDS011;5609;49.466;8.468;2023-05-29T02:40:19;6.43;;;4.00;;
11111;SDS011;5609;49.466;8.468;2023-05-29T02:42:47;7.20;;;4.47;;
11111;SDS011;5609;49.466;8.468;2023-05-29T02:45:14;6.77;;;4.00;;
11111;SDS011;5609;49.466;8.468;2023-05-29T02:47:41;6.53;;;4.10;;
11111;SDS011;5609;49.466;8.468;2023-05-29T02:50:08;5.37;;;3.93;;
11111;SDS011;5609;49.466;8.468;2023-05-29T02:52:36;7.47;;;4.10;;
11111;SDS011;5609;49.466;8.468;2023-05-29T02:55:04;6.07;;;3.83;;
11111;SDS011;5609;49.466;8.468;2023-05-29T02:57:31;6.37;;;3.97;;
11111;SDS011;5609;49.466;8.468;2023-05-29T02:59:58;5.37;;;3.90;;
11111;SDS011;5609;49.466;8.468;2023-05-29T03:02:25;5.37;;;3.87;;
11111;SDS011;5609;49.466;8.468;2023-05-29T03:04:52;4.93;;;3.77;;
11111;SDS011;5609;49.466;8.468;2023-05-29T03:07:20;5.53;;;4.00;;
11111;SDS011;5609;49.466;8.468;2023-05-29T03:09:47;6.40;;;3.90;;
11111;SDS011;5609;49.466;8.468;2023-05-29T03:12:16;5.30;;;4.10;;
11111;SDS011;5609;49.466;8.468;2023-05-29T03:14:43;5.07;;;3.97;;
11111;SDS011;5609;49.466;8.468;2023-05-29T03:17:10;6.60;;;4.20;;
11111;SDS011;5609;49.466;8.468;2023-05-29T03:19:38;6.10;;;3.90;;
11111;SDS011;5609;49.466;8.468;2023-05-29T03:22:05;5.63;;;4.00;;
11111;SDS011;5609;49.466;8.468;2023-05-29T03:24:32;5.20;;;3.80;;
11111;SDS011;5609;49.466;8.468;2023-05-29T03:26:59;5.07;;;3.57;;
11111;SDS011;5609;49.466;8.468;2023-05-29T03:29:29;7.03;;;4.40;;
11111;SDS011;5609;49.466;8.468;2023-05-29T03:31:56;5.37;;;4.10;;
11111;SDS011;5609;49.466;8.468;2023-05-29T03:34:23;7.10;;;4.30;;
11111;SDS011;5609;49.466;8.468;2023-05-29T03:36:51;5.57;;;3.97;;
11111;SDS011;5609;49.466;8.468;2023-05-29T03:39:18;6.57;;;3.67;;
11111;SDS011;5609;49.466;8.468;2023-05-29T03:41:45;5.50;;;3.80;;
11111;SDS011;5609;49.466;8.468;2023-05-29T03:44:13;6.90;;;3.90;;
11111;SDS011;5609;49.466;8.468;2023-05-29T03:46:41;6.83;;;4.13;;
11111;SDS011;5609;49.466;8.468;2023-05-29T03:49:08;7.70;;;4.00;;
11111;SDS011;5609;49.466;8.468;2023-05-29T03:51:35;6.50;;;3.80;;
11111;SDS011;5609;49.466;8.468;2023-05-29T03:54:03;5.93;;;3.80;;
11111;SDS011;5609;49.466;8.468;2023-05-29T03:56:30;6.73;;;4.07;;
11111;SDS011;5609;49.466;8.468;2023-05-29T03:58:57;5.20;;;3.83;;
11111;SDS011;5609;49.466;8.468;2023-05-29T04:01:24;5.90;;;4.00;;
11111;SDS011;5609;49.466;8.468;2023-05-29T04:03:52;5.77;;;3.67;;
11111;SDS011;5609;49.466;8.468;2023-05-29T04:06:20;5.47;;;4.50;;
11111;SDS011;5609;49.466;8.468;2023-05-29T04:08:47;5.03;;;3.67;;
11111;SDS011;5609;49.466;8.468;2023-05-29T04:11:15;5.20;;;3.57;;
11111;SDS011;5609;49.466;8.468;2023-05-29T04:13:42;4.30;;;3.60;;
11111;SDS011;5609;49.466;8.468;2023-05-29T04:16:09;5.17;;;3.90;;
11111;SDS011;5609;49.466;8.468;2023-05-29T04:18:36;6.67;;;3.47;;
11111;SDS011;5609;49.466;8.468;2023-05-29T04:21:04;5.17;;;3.63;;
11111;SDS011;5609;49.466;8.468;2023-05-29T04:23:32;4.93;;;3.90;;
11111;SDS011;5609;49.466;8.468;2023-05-29T04:25:59;4.70;;;3.40;;
11111;SDS011;5609;49.466;8.468;2023-05-29T04:28:27;5.77;;;3.77;;
11111;SDS011;5609;49.466;8.468;2023-05-29T04:30:54;5.30;;;3.90;;
11111;SDS011;5609;49.466;8.468;2023-05-29T04:33:21;5.87;;;3.53;;
11111;SDS011;5609;49.466;8.468;2023-05-29T04:35:49;7.63;;;3.67;;
11111;SDS011;5609;49.466;8.468;2023-05-29T04:38:18;6.97;;;3.63;;
11111;SDS011;5609;49.466;8.468;2023-05-29T04:40:49;4.73;;;3.83;;
11111;SDS011;5609;49.466;8.468;2023-05-29T04:43:16;6.33;;;4.07;;
11111;SDS011;5609;49.466;8.468;2023-05-29T04:45:43;5.40;;;3.90;;
11111;SDS011;5609;49.466;8.468;2023-05-29T04:48:11;4.27;;;3.50;;
11111;SDS011;5609;49.466;8.468;2023-05-29T04:50:38;5.70;;;3.53;;
11111;SDS011;5609;49.466;8.468;2023-05-29T04:53:05;5.70;;;3.47;;
11111;SDS011;5609;49.466;8.468;2023-05-29T04:55:33;5.10;;;3.80;;
11111;SDS011;5609;49.466;8.468;2023-05-29T04:58:00;6.20;;;3.97;;
11111;SDS011;5609;49.466;8.468;2023-05-29T05:00:27;5.37;;;3.47;;
11111;SDS011;5609;49.466;8.468;2023-05-29T05:02:54;6.23;;;3.53;;
11111;SDS011;5609;49.466;8.468;2023-05-29T05:05:21;4.17;;;3.50;;
11111;SDS011;5609;49.466;8.468;2023-05-29T05:07:48;6.33;;;3.70;;
11111;SDS011;5609;49.466;8.468;2023-05-29T05:10:15;4.77;;;3.67;;
11111;SDS011;5609;49.466;8.468;2023-05-29T05:12:44;4.57;;;3.57;;
11111;SDS011;5609;49.466;8.468;2023-05-29T05:15:11;5.30;;;3.40;;
11111;SDS011;5609;49.466;8.468;2023-05-29T05:17:38;7.07;;;3.87;;
11111;SDS011;5609;49.466;8.468;2023-05-29T05:20:05;5.93;;;3.50;;
11111;SDS011;5609;49.466;8.468;2023-05-29T05:22:33;5.57;;;3.70;;
11111;SDS011;5609;49.466;8.468;2023-05-29T05:25:00;7.13;;;3.70;;
11111;SDS011;5609;49.466;8.468;2023-05-29T05:27:29;6.33;;;3.97;;
11111;SDS011;5609;49.466;8.468;2023-05-29T05:29:57;5.80;;;3.50;;
11111;SDS011;5609;49.466;8.468;2023-05-29T05:32:24;4.13;;;3.30;;
11111;SDS011;5609;49.466;8.468;2023-05-29T05:34:51;4.37;;;3.40;;
11111;SDS011;5609;49.466;8.468;2023-05-29T05:37:18;4.80;;;3.60;;
11111;SDS011;5609;49.466;8.468;2023-05-29T05:39:48;3.73;;;3.30;;
11111;SDS011;5609;49.466;8.468;2023-05-29T05:42:15;5.47;;;3.60;;
11111;SDS011;5609;49.466;8.468;2023-05-29T05:44:42;4.70;;;3.20;;
11111;SDS011;5609;49.466;8.468;2023-05-29T05:47:11;4.93;;;3.50;;
11111;SDS011;5609;49.466;8.468;2023-05-29T05:49:38;5.40;;;3.60;;
11111;SDS011;5609;49.466;8.468;2023-05-29T05:52:05;5.60;;;3.60;;
11111;SDS011;5609;49.466;8.468;2023-05-29T05:54:32;4.37;;;3.50;;
11111;SDS011;5609;49.466;8.468;2023-05-29T05:56:59;4.43;;;3.57;;
11111;SDS011;5609;49.466;8.468;2023-05-29T05:59:28;6.13;;;3.90;;
11111;SDS011;5609;49.466;8.468;2023-05-29T06:01:55;5.87;;;3.33;;
11111;SDS011;5609;49.466;8.468;2023-05-29T06:04:23;5.80;;;3.60;;
11111;SDS011;5609;49.466;8.468;2023-05-29T06:06:51;7.23;;;3.70;;
11111;SDS011;5609;49.466;8.468;2023-05-29T06:09:18;5.50;;;3.53;;
11111;SDS011;5609;49.466;8.468;2023-05-29T06:11:45;4.90;;;3.20;;
11111;SDS011;5609;49.466;8.468;2023-05-29T06:14:12;4.30;;;3.60;;
11111;SDS011;5609;49.466;8.468;2023-05-29T06:16:39;5.03;;;3.50;;
11111;SDS011;5609;49.466;8.468;2023-05-29T06:19:06;5.07;;;3.37;;
11111;SDS011;5609;49.466;8.468;2023-05-29T06:21:35;6.57;;;3.77;;
11111;SDS011;5609;49.466;8.468;2023-05-29T06:24:02;5.83;;;3.40;;
11111;SDS011;5609;49.466;8.468;2023-05-29T06:26:29;6.97;;;3.37;;
11111;SDS011;5609;49.466;8.468;2023-05-29T06:28:57;6.87;;;3.67;;
11111;SDS011;5609;49.466;8.468;2023-05-29T06:31:24;5.37;;;3.63;;
11111;SDS011;5609;49.466;8.468;2023-05-29T06:33:51;5.53;;;3.60;;
11111;SDS011;5609;49.466;8.468;2023-05-29T06:36:19;4.93;;;3.60;;
11111;SDS011;5609;49.466;8.468;2023-05-29T06:38:48;5.17;;;3.50;;
11111;SDS011;5609;49.466;8.468;2023-05-29T06:41:15;5.43;;;3.47;;
11111;SDS011;5609;49.466;8.468;2023-05-29T06:43:42;3.67;;;3.17;;
11111;SDS011;5609;49.466;8.468;2023-05-29T06:46:09;4.67;;;3.37;;
11111;SDS011;5609;49.466;8.468;2023-05-29T06:48:36;6.13;;;3.60;;
11111;SDS011;5609;49.466;8.468;2023-05-29T06:51:04;7.20;;;3.70;;
11111;SDS011;5609;49.466;8.468;2023-05-29T06:53:34;4.40;;;3.30;;
11111;SDS011;5609;49.466;8.468;2023-05-29T06:56:03;4.63;;;3.33;;
11111;SDS011;5609;49.466;8.468;2023-05-29T06:58:30;5.90;;;3.20;;
11111;SDS011;5609;49.466;8.468;2023-05-29T07:00:57;6.70;;;4.10;;
11111;SDS011;5609;49.466;8.468;2023-05-29T07:03:24;6.37;;;3.90;;
11111;SDS011;5609;49.466;8.468;2023-05-29T07:05:52;6.90;;;3.50;;
11111;SDS011;5609;49.466;8.468;2023-05-29T07:08:19;5.47;;;3.43;;
11111;SDS011;5609;49.466;8.468;2023-05-29T07:10:46;5.70;;;3.57;;
11111;SDS011;5609;49.466;8.468;2023-05-29T07:13:16;5.13;;;3.93;;
11111;SDS011;5609;49.466;8.468;2023-05-29T07:15:43;4.43;;;3.40;;
11111;SDS011;5609;49.466;8.468;2023-05-29T07:18:11;5.83;;;3.67;;
11111;SDS011;5609;49.466;8.468;2023-05-29T07:20:38;4.37;;;3.53;;
11111;SDS011;5609;49.466;8.468;2023-05-29T07:23:05;4.63;;;3.50;;
11111;SDS011;5609;49.466;8.468;2023-05-29T07:25:32;5.27;;;3.50;;
11111;SDS011;5609;49.466;8.468;2023-05-29T07:27:59;7.37;;;3.67;;
11111;SDS011;5609;49.466;8.468;2023-05-29T07:30:27;5.10;;;3.67;;
11111;SDS011;5609;49.466;8.468;2023-05-29T07:32:54;5.47;;;3.60;;
11111;SDS011;5609;49.466;8.468;2023-05-29T07:35:21;4.63;;;3.50;;
11111;SDS011;5609;49.466;8.468;2023-05-29T07:37:48;4.60;;;3.67;;
11111;SDS011;5609;49.466;8.468;2023-05-29T07:40:17;5.17;;;3.53;;
11111;SDS011;5609;49.466;8.468;2023-05-29T07:42:44;6.33;;;3.53;;
11111;SDS011;5609;49.466;8.468;2023-05-29T07:45:11;4.30;;;3.40;;
11111;SDS011;5609;49.466;8.468;2023-05-29T07:47:40;5.33;;;3.23;;
11111;SDS011;5609;49.466;8.468;2023-05-29T07:50:07;4.60;;;3.57;;
11111;SDS011;5609;49.466;8.468;2023-05-29T07:52:35;3.93;;;3.33;;
11111;SDS011;5609;49.466;8.468;2023-05-29T07:55:02;6.03;;;3.30;;
11111;SDS011;5609;49.466;8.468;2023-05-29T07:57:29;4.43;;;3.13;;
11111;SDS011;5609;49.466;8.468;2023-05-29T07:59:56;4.90;;;3.40;;
11111;SDS011;5609;49.466;8.468;2023-05-29T08:02:24;5.63;;;3.50;;
11111;SDS011;5609;49.466;8.468;2023-05-29T08:04:52;4.77;;;3.33;;
11111;SDS011;5609;49.466;8.468;2023-05-29T08:07:19;4.63;;;3.37;;
11111;SDS011;5609;49.466;8.468;2023-05-29T08:09:46;4.60;;;3.60;;
11111;SDS011;5609;49.466;8.468;2023-05-29T08:12:14;6.03;;;3.50;;
11111;SDS011;5609;49.466;8.468;2023-05-29T08:14:41;5.47;;;3.57;;
11111;SDS011;5609;49.466;8.468;2023-05-29T08:17:08;4.33;;;3.47;;
11111;SDS011;5609;49.466;8.468;2023-05-29T08:19:35;5.53;;;3.40;;
11111;SDS011;5609;49.466;8.468;2023-05-29T08:22:03;4.77;;;3.60;;
11111;SDS011;5609;49.466;8.468;2023-05-29T08:24:30;4.37;;;3.10;;
11111;SDS011;5609;49.466;8.468;2023-05-29T08:26:58;4.33;;;3.40;;
11111;SDS011;5609;49.466;8.468;2023-05-29T08:29:25;4.93;;;3.60;;
11111;SDS011;5609;49.466;8.468;2023-05-29T08:31:52;5.13;;;3.50;;
11111;SDS011;5609;49.466;8.468;2023-05-29T08:34:19;3.83;;;3.37;;
11111;SDS011;5609;49.466;8.468;2023-05-29T08:36:46;5.30;;;3.57;;
11111;SDS011;5609;49.466;8.468;2023-05-29T08:39:15;3.77;;;3.23;;
11111;SDS011;5609;49.466;8.468;2023-05-29T08:41:44;4.80;;;3.57;;
11111;SDS011;5609;49.466;8.468;2023-05-29T08:44:15;5.50;;;3.07;;
11111;SDS011;5609;49.466;8.468;2023-05-29T08:46:44;5.30;;;3.50;;
11111;SDS011;5609;49.466;8.468;2023-05-29T08:49:11;4.60;;;3.63;;
11111;SDS011;5609;49.466;8.468;2023-05-29T08:51:40;5.30;;;3.70;;
11111;SDS011;5609;49.466;8.468;2023-05-29T08:54:09;4.93;;;3.33;;
11111;SDS011;5609;49.466;8.468;2023-05-29T08:56:37;4.40;;;3.23;;
11111;SDS011;5609;49.466;8.468;2023-05-29T08:59:05;5.33;;;3.43;;
11111;SDS011;5609;49.466;8.468;2023-05-29T09:01:33;4.03;;;3.30;;
11111;SDS011;5609;49.466;8.468;2023-05-29T09:04:01;3.57;;;3.17;;
11111;SDS011;5609;49.466;8.468;2023-05-29T09:06:28;4.50;;;3.33;;
11111;SDS011;5609;49.466;8.468;2023-05-29T09:08:55;3.80;;;3.30;;
11111;SDS011;5609;49.466;8.468;2023-05-29T09:11:23;4.63;;;3.53;;
11111;SDS011;5609;49.466;8.468;2023-05-29T09:13:52;3.80;;;3.20;;
11111;SDS011;5609;49.466;8.468;2023-05-29T09:16:19;4.90;;;3.60;;
11111;SDS011;5609;49.466;8.468;2023-05-29T09:18:47;5.07;;;2.93;;
11111;SDS011;5609;49.466;8.468;2023-05-29T09:21:24;5.37;;;3.20;;
11111;SDS011;5609;49.466;8.468;2023-05-29T09:23:52;4.30;;;3.27;;
11111;SDS011;5609;49.466;8.468;2023-05-29T09:26:20;4.30;;;3.10;;
11111;SDS011;5609;49.466;8.468;2023-05-29T09:28:48;5.80;;;3.40;;
11111;SDS011;5609;49.466;8.468;2023-05-29T09:31:16;4.10;;;3.23;;
11111;SDS011;5609;49.466;8.468;2023-05-29T09:33:48;5.00;;;3.30;;
11111;SDS011;5609;49.466;8.468;2023-05-29T09:36:19;4.73;;;3.30;;
11111;SDS011;5609;49.466;8.468;2023-05-29T09:38:46;4.37;;;2.93;;
11111;SDS011;5609;49.466;8.468;2023-05-29T09:41:14;5.20;;;3.40;;
11111;SDS011;5609;49.466;8.468;2023-05-29T09:43:47;3.60;;;3.20;;
11111;SDS011;5609;49.466;8.468;2023-05-29T09:46:14;3.87;;;3.30;;
11111;SDS011;5609;49.466;8.468;2023-05-29T09:48:43;5.03;;;3.57;;
11111;SDS011;5609;49.466;8.468;2023-05-29T09:51:18;3.63;;;3.30;;
11111;SDS011;5609;49.466;8.468;2023-05-29T09:53:45;4.40;;;3.27;;
11111;SDS011;5609;49.466;8.468;2023-05-29T09:56:13;5.93;;;3.50;;
11111;SDS011;5609;49.466;8.468;2023-05-29T09:58:42;4.97;;;3.20;;
11111;SDS011;5609;49.466;8.468;2023-05-29T10:01:11;4.77;;;3.33;;
11111;SDS011;5609;49.466;8.468;2023-05-29T10:03:38;4.97;;;3.20;;
11111;SDS011;5609;49.466;8.468;2023-05-29T10:06:08;4.67;;;3.33;;
11111;SDS011;5609;49.466;8.468;2023-05-29T10:08:37;4.40;;;3.30;;
11111;SDS011;5609;49.466;8.468;2023-05-29T10:11:04;5.00;;;3.43;;
11111;SDS011;5609;49.466;8.468;2023-05-29T10:13:35;4.00;;;3.20;;
11111;SDS011;5609;49.466;8.468;2023-05-29T10:16:03;4.00;;;3.00;;
11111;SDS011;5609;49.466;8.468;2023-05-29T10:18:31;4.07;;;2.87;;
11111;SDS011;5609;49.466;8.468;2023-05-29T10:20:58;4.30;;;3.30;;
11111;SDS011;5609;49.466;8.468;2023-05-29T10:23:28;4.30;;;3.30;;
11111;SDS011;5609;49.466;8.468;2023-05-29T10:25:59;5.87;;;3.30;;
11111;SDS011;5609;49.466;8.468;2023-05-29T10:28:29;4.87;;;3.30;;
11111;SDS011;5609;49.466;8.468;2023-05-29T10:30:57;3.70;;;3.30;;
11111;SDS011;5609;49.466;8.468;2023-05-29T10:33:33;4.50;;;3.40;;
11111;SDS011;5609;49.466;8.468;2023-05-29T10:36:06;3.30;;;3.00;;
11111;SDS011;5609;49.466;8.468;2023-05-29T10:38:35;4.43;;;3.20;;
11111;SDS011;5609;49.466;8.468;2023-05-29T10:43:44;3.40;;;3.00;;
11111;SDS011;5609;49.466;8.468;2023-05-29T10:46:11;7.70;;;3.07;;
11111;SDS011;5609;49.466;8.468;2023-05-29T10:48:39;4.73;;;3.20;;
11111;SDS011;5609;49.466;8.468;2023-05-29T10:51:07;4.87;;;3.30;;
11111;SDS011;5609;49.466;8.468;2023-05-29T10:53:35;4.10;;;3.20;;
11111;SDS011;5609;49.466;8.468;2023-05-29T10:56:10;3.53;;;3.00;;
11111;SDS011;5609;49.466;8.468;2023-05-29T10:58:41;4.50;;;3.37;;
11111;SDS011;5609;49.466;8.468;2023-05-29T11:01:08;4.90;;;3.00;;
11111;SDS011;5609;49.466;8.468;2023-05-29T11:03:35;5.17;;;3.50;;
11111;SDS011;5609;49.466;8.468;2023-05-29T11:06:03;4.07;;;3.17;;
11111;SDS011;5609;49.466;8.468;2023-05-29T11:08:33;5.07;;;3.47;;
11111;SDS011;5609;49.466;8.468;2023-05-29T11:11:02;4.43;;;3.10;;
11111;SDS011;5609;49.466;8.468;2023-05-29T11:13:31;4.60;;;3.40;;
11111;SDS011;5609;49.466;8.468;2023-05-29T11:16:04;5.30;;;3.57;;
11111;SDS011;5609;49.466;8.468;2023-05-29T11:18:31;3.73;;;2.97;;
11111;SDS011;5609;49.466;8.468;2023-05-29T11:21:01;3.77;;;3.20;;
11111;SDS011;5609;49.466;8.468;2023-05-29T11:23:31;4.93;;;3.00;;
11111;SDS011;5609;49.466;8.468;2023-05-29T11:25:58;3.83;;;3.13;;
11111;SDS011;5609;49.466;8.468;2023-05-29T11:28:27;4.40;;;3.13;;
11111;SDS011;5609;49.466;8.468;2023-05-29T11:30:54;3.90;;;3.13;;
11111;SDS011;5609;49.466;8.468;2023-05-29T11:33:25;4.20;;;3.17;;
11111;SDS011;5609;49.466;8.468;2023-05-29T11:35:54;3.97;;;2.93;;
11111;SDS011;5609;49.466;8.468;2023-05-29T11:38:22;4.73;;;3.30;;
11111;SDS011;5609;49.466;8.468;2023-05-29T11:40:49;3.40;;;3.10;;
11111;SDS011;5609;49.466;8.468;2023-05-29T11:43:16;4.57;;;3.33;;
11111;SDS011;5609;49.466;8.468;2023-05-29T11:45:45;3.40;;;2.93;;
11111;SDS011;5609;49.466;8.468;2023-05-29T11:48:12;3.53;;;2.77;;
11111;SDS011;5609;49.466;8.468;2023-05-29T11:50:39;4.77;;;3.37;;
11111;SDS011;5609;49.466;8.468;2023-05-29T11:53:07;4.10;;;2.80;;
11111;SDS011;5609;49.466;8.468;2023-05-29T11:55:34;4.50;;;3.00;;
11111;SDS011;5609;49.466;8.468;2023-05-29T11:58:02;3.50;;;3.20;;
11111;SDS011;5609;49.466;8.468;2023-05-29T12:00:32;5.00;;;2.80;;
11111;SDS011;5609;49.466;8.468;2023-05-29T12:03:01;4.47;;;3.00;;
11111;SDS011;5609;49.466;8.468;2023-05-29T12:05:29;3.50;;;2.70;;
11111;SDS011;5609;49.466;8.468;2023-05-29T12:07:56;4.33;;;3.20;;
11111;SDS011;5609;49.466;8.468;2023-05-29T12:10:26;4.30;;;3.20;;
11111;SDS011;5609;49.466;8.468;2023-05-29T12:12:53;3.37;;;3.00;;
11111;SDS011;5609;49.466;8.468;2023-05-29T12:15:20;4.67;;;3.23;;
11111;SDS011;5609;49.466;8.468;2023-05-29T12:17:48;4.37;;;2.93;;
11111;SDS011;5609;49.466;8.468;2023-05-29T12:20:17;4.03;;;2.80;;
11111;SDS011;5609;49.466;8.468;2023-05-29T12:22:45;4.53;;;2.93;;
11111;SDS011;5609;49.466;8.468;2023-05-29T12:25:12;3.27;;;2.97;;
11111;SDS011;5609;49.466;8.468;2023-05-29T12:27:41;4.47;;;3.00;;
11111;SDS011;5609;49.466;8.468;2023-05-29T12:30:08;3.83;;;3.07;;
11111;SDS011;5609;49.466;8.468;2023-05-29T12:32:36;4.00;;;3.00;;
11111;SDS011;5609;49.466;8.468;2023-05-29T12:35:13;4.30;;;3.10;;
11111;SDS011;5609;49.466;8.468;2023-05-29T12:37:45;4.13;;;2.97;;
11111;SDS011;5609;49.466;8.468;2023-05-29T12:40:16;3.17;;;2.87;;
11111;SDS011;5609;49.466;8.468;2023-05-29T12:42:43;3.47;;;3.10;;
11111;SDS011;5609;49.466;8.468;2023-05-29T12:45:10;3.53;;;2.83;;
11111;SDS011;5609;49.466;8.468;2023-05-29T12:47:38;5.00;;;3.23;;
11111;SDS011;5609;49.466;8.468;2023-05-29T12:50:20;3.40;;;3.10;;
11111;SDS011;5609;49.466;8.468;2023-05-29T12:52:59;3.77;;;2.80;;
11111;SDS011;5609;49.466;8.468;2023-05-29T12:55:27;4.93;;;2.97;;
11111;SDS011;5609;49.466;8.468;2023-05-29T12:57:54;5.57;;;2.77;;
11111;SDS011;5609;49.466;8.468;2023-05-29T13:00:22;4.70;;;2.87;;
11111;SDS011;5609;49.466;8.468;2023-05-29T13:02:49;4.50;;;2.75;;
11111;SDS011;5609;49.466;8.468;2023-05-29T13:05:16;3.17;;;2.65;;
11111;SDS011;5609;49.466;8.468;2023-05-29T13:07:44;4.85;;;2.90;;
11111;SDS011;5609;49.466;8.468;2023-05-29T13:10:12;4.10;;;2.70;;
11111;SDS011;5609;49.466;8.468;2023-05-29T13:12:40;4.07;;;2.90;;
11111;SDS011;5609;49.466;8.468;2023-05-29T13:15:07;2.85;;;2.60;;
11111;SDS011;5609;49.466;8.468;2023-05-29T13:17:34;3.00;;;2.70;;
11111;SDS011;5609;49.466;8.468;2023-05-29T13:20:01;3.53;;;2.70;;
11111;SDS011;5609;49.466;8.468;2023-05-29T13:22:31;3.72;;;2.72;;
11111;SDS011;5609;49.466;8.468;2023-05-29T13:24:58;3.95;;;2.75;;
11111;SDS011;5609;49.466;8.468;2023-05-29T13:27:26;6.07;;;2.88;;
11111;SDS011;5609;49.466;8.468;2023-05-29T13:29:54;3.88;;;2.72;;
11111;SDS011;5609;49.466;8.468;2023-05-29T13:32:21;4.22;;;2.80;;
11111;SDS011;5609;49.466;8.468;2023-05-29T13:34:48;2.90;;;2.63;;
11111;SDS011;5609;49.466;8.468;2023-05-29T13:37:15;3.10;;;2.70;;
11111;SDS011;5609;49.466;8.468;2023-05-29T13:39:42;3.65;;;2.80;;
11111;SDS011;5609;49.466;8.468;2023-05-29T13:42:09;3.78;;;2.90;;
11111;SDS011;5609;49.466;8.468;2023-05-29T13:44:38;3.55;;;2.60;;
11111;SDS011;5609;49.466;8.468;2023-05-29T13:47:05;4.53;;;2.72;;
11111;SDS011;5609;49.466;8.468;2023-05-29T13:49:33;2.75;;;2.53;;
11111;SDS011;5609;49.466;8.468;2023-05-29T13:52:00;3.15;;;2.85;;
11111;SDS011;5609;49.466;8.468;2023-05-29T13:54:27;4.18;;;2.75;;
11111;SDS011;5609;49.466;8.468;2023-05-29T13:56:55;3.83;;;2.63;;
11111;SDS011;5609;49.466;8.468;2023-05-29T13:59:23;3.75;;;2.50;;
11111;SDS011;5609;49.466;8.468;2023-05-29T14:01:51;3.00;;;2.70;;
11111;SDS011;5609;49.466;8.468;2023-05-29T14:04:18;2.60;;;2.40;;
11111;SDS011;5609;49.466;8.468;2023-05-29T14:06:45;2.80;;;2.50;;
11111;SDS011;5609;49.466;8.468;2023-05-29T14:09:12;3.33;;;2.72;;
11111;SDS011;5609;49.466;8.468;2023-05-29T14:11:39;3.33;;;2.60;;
11111;SDS011;5609;49.466;8.468;2023-05-29T14:14:06;2.95;;;2.70;;
11111;SDS011;5609;49.466;8.468;2023-05-29T14:16:34;2.85;;;2.53;;
11111;SDS011;5609;49.466;8.468;2023-05-29T14:19:02;3.33;;;2.65;;
11111;SDS011;5609;49.466;8.468;2023-05-29T14:21:29;2.75;;;2.35;;
11111;SDS011;5609;49.466;8.468;2023-05-29T14:23:56;2.78;;;2.58;;
11111;SDS011;5609;49.466;8.468;2023-05-29T14:26:23;2.83;;;2.45;;
11111;SDS011;5609;49.466;8.468;2023-05-29T14:28:51;4.05;;;2.70;;
11111;SDS011;5609;49.466;8.468;2023-05-29T14:31:18;4.30;;;2.60;;
11111;SDS011;5609;49.466;8.468;2023-05-29T14:33:45;3.58;;;2.60;;
11111;SDS011;5609;49.466;8.468;2023-05-29T14:36:13;2.50;;;2.30;;
11111;SDS011;5609;49.466;8.468;2023-05-29T14:38:40;3.00;;;2.70;;
11111;SDS011;5609;49.466;8.468;2023-05-29T14:41:08;2.90;;;2.40;;
11111;SDS011;5609;49.466;8.468;2023-05-29T14:43:37;3.13;;;2.58;;
11111;SDS011;5609;49.466;8.468;2023-05-29T14:46:04;2.60;;;2.40;;
11111;SDS011;5609;49.466;8.468;2023-05-29T14:48:32;3.10;;;2.63;;
11111;SDS011;5609;49.466;8.468;2023-05-29T14:50:59;3.25;;;2.50;;
11111;SDS011;5609;49.466;8.468;2023-05-29T14:53:27;3.65;;;2.75;;
11111;SDS011;5609;49.466;8.468;2023-05-29T14:55:56;3.00;;;2.60;;
11111;SDS011;5609;49.466;8.468;2023-05-29T14:58:23;4.68;;;2.88;;
11111;SDS011;5609;49.466;8.468;2023-05-29T15:00:50;3.00;;;2.70;;
11111;SDS011;5609;49.466;8.468;2023-05-29T15:03:17;2.70;;;2.45;;
11111;SDS011;5609;49.466;8.468;2023-05-29T15:05:45;4.20;;;2.80;;
11111;SDS011;5609;49.466;8.468;2023-05-29T15:08:12;5.03;;;2.50;;